Terminal Aerodrome Forecast
Issued by NWS Springfield, MO

Home | Current Version | Previous Version | Text Only | Print | Product List | Glossary On
Versions: 1 2 3 4 5 6 7 8 9 10 11 12 13 14 15 16 17 18 19 20 21
002
FTUS43 KSGF 181754 AAA
TAFSGF
TAF AMD
KSGF 181754Z 1818/1918 22006KT P6SM SCT050 BKN250
     FM190100 19006KT P6SM SCT200
     FM190800 25005KT P6SM VCTS BKN050CB OVC200
     FM191200 22004KT 4SM BR SCT110
     FM191500 29004KT P6SM FEW250=

USA.gov is the U.S. government's official web portal to all federal, state and local government web resources and services.